Time;durP1;ratioP1;P1;durP2;ratioP2;P2;SDS_P1;SDS_P2;PMS_P1;PMS_P2;Temp;Humidity;BMP_temperature;BMP_pressure;BME280_temperature;BME280_humidity;BME280_pressure;Samples;Min_cycle;Max_cycle;Signal;HPM_P1;HPM_P2
2023/07/16 00:06:55;;;;;;;13.40;12.10;;;18.80;99.90;;;;;;5917212;23;20354;-84
2023/07/16 00:26:43;;;;;;;13.20;11.97;;;18.50;99.90;;;;;;5769357;24;20538;-83
2023/07/16 01:53:29;;;;;;;13.20;12.10;;;18.10;99.90;;;;;;5605442;24;20688;-84
2023/07/16 02:18:39;;;;;;;14.30;13.00;;;19.00;99.90;;;;;;5693083;24;20271;-85
2023/07/16 02:54:16;;;;;;;13.53;12.43;;;19.30;99.90;;;;;;5855349;23;20222;-83
2023/07/16 03:24:40;;;;;;;13.90;12.70;;;19.60;99.90;;;;;;5880997;23;20464;-84
2023/07/16 03:50:07;;;;;;;13.73;12.43;;;20.10;99.90;;;;;;5904748;23;20853;-84
2023/07/16 05:06:06;;;;;;;13.80;12.52;;;22.90;95.80;;;;;;5911330;23;20187;-87
2023/07/16 05:31:15;;;;;;;13.55;12.23;;;23.80;93.00;;;;;;5738654;24;20258;-84
2023/07/16 06:21:59;;;;;;;10.60;9.65;;;25.70;89.20;;;;;;5662459;24;20209;-84
2023/07/16 06:52:27;;;;;;;9.73;8.73;;;27.30;85.40;;;;;;5752443;24;20253;-85
2023/07/16 07:07:45;;;;;;;9.02;8.23;;;28.30;82.20;;;;;;5869738;23;20185;-84
2023/07/16 07:33:13;;;;;;;8.35;7.65;;;29.70;76.30;;;;;;5813828;24;20265;-84
2023/07/16 08:08:43;;;;;;;7.68;6.97;;;31.20;62.80;;;;;;5834620;24;20219;-85
2023/07/16 08:18:07;;;;;;;7.47;6.80;;;31.60;61.50;;;;;;6082905;23;20289;31
2023/07/16 08:48:23;;;;;;;6.75;6.10;;;32.20;58.80;;;;;;5712972;24;20189;-85
2023/07/16 09:13:50;;;;;;;5.75;5.25;;;33.10;54.90;;;;;;5745143;24;20209;-84
2023/07/16 09:39:02;;;;;;;5.70;5.30;;;33.10;53.50;;;;;;5561967;25;20218;-82
2023/07/16 09:58:46;;;;;;;6.68;6.07;;;33.20;53.50;;;;;;5829675;23;20534;-83
2023/07/16 11:00:01;;;;;;;8.38;7.50;;;34.20;53.60;;;;;;5757439;24;20578;-88
2023/07/16 11:30:14;;;;;;;7.70;7.13;;;34.00;55.10;;;;;;5636441;24;20491;-87
2023/07/16 12:31:11;;;;;;;9.73;6.95;;;34.30;54.30;;;;;;5426579;25;20188;-84
2023/07/16 13:02:02;;;;;;;6.22;5.63;;;34.40;52.80;;;;;;5669622;24;20733;-84
2023/07/16 13:31:49;;;;;;;4.90;4.50;;;34.20;50.80;;;;;;5503499;25;20695;-85
2023/07/16 13:57:36;;;;;;;4.90;4.50;;;34.80;50.00;;;;;;5485745;25;20207;-83
2023/07/16 15:04:04;;;;;;;3.72;3.42;;;32.60;50.00;;;;;;5696734;24;20189;-83
2023/07/16 15:08:10;;;;;;;4.15;3.75;;;32.60;50.30;;;;;;5578908;24;20797;-84
2023/07/16 15:33:57;;;;;;;4.97;3.28;;;31.60;50.60;;;;;;5748937;24;20348;-82
2023/07/16 16:04:24;;;;;;;5.00;3.00;;;30.70;50.90;;;;;;5701747;24;20255;-85
2023/07/16 16:29:50;;;;;;;3.00;2.70;;;30.70;50.80;;;;;;5692374;24;20778;-83
2023/07/16 17:00:28;;;;;;;3.83;2.97;;;30.90;50.90;;;;;;5829171;23;20670;-86
2023/07/16 19:37:21;;;;;;;4.25;3.30;;;26.70;57.30;;;;;;5611191;24;20193;-84
2023/07/16 20:07:59;;;;;;;3.90;3.47;;;25.80;78.10;;;;;;5631086;25;20184;-87
2023/07/16 20:32:43;;;;;;;3.90;3.60;;;25.60;82.30;;;;;;5648809;24;20301;-85
2023/07/16 20:48:48;;;;;;;3.72;3.33;;;25.70;82.00;;;;;;5728765;24;20253;-85
2023/07/16 21:13:30;;;;;;;4.15;2.80;;;25.60;81.50;;;;;;5851411;23;20189;-84
2023/07/16 21:39:23;;;;;;;3.40;3.10;;;24.90;83.70;;;;;;5768390;23;20513;-85
2023/07/16 21:43:43;;;;;;;4.07;3.15;;;24.90;83.40;;;;;;5851320;23;20219;-84
2023/07/16 22:39:44;;;;;;;3.00;2.75;;;23.30;90.00;;;;;;5630616;24;20512;-83
2023/07/16 23:00:05;;;;;;;3.00;2.70;;;22.90;91.00;;;;;;5724953;24;20229;-82
2023/07/16 23:20:35;;;;;;;4.35;2.97;;;22.70;92.20;;;;;;5736941;24;20310;-85
